Time;durP1;ratioP1;P1;durP2;ratioP2;P2;SDS_P1;SDS_P2;PMS_P1;PMS_P2;Temp;Humidity;BMP_temperature;BMP_pressure;BME280_temperature;BME280_humidity;BME280_pressure;Samples;Min_cycle;Max_cycle;Signal;HPM_P1;HPM_P2
2021/06/15 00:00:25;;;;;;;5.28;2.20;;;;;;;16.83;75.47;99466.82;1757596;79;21327;-55
2021/06/15 00:02:53;;;;;;;10.58;2.12;;;;;;;16.83;75.59;99467.31;1759945;80;21673;-54
2021/06/15 00:05:19;;;;;;;6.65;2.60;;;;;;;16.82;75.70;99469.16;1761600;80;20985;-55
2021/06/15 00:07:45;;;;;;;14.75;2.55;;;;;;;16.83;75.73;99469.54;1758895;80;21047;-56
2021/06/15 00:10:23;;;;;;;3.72;2.75;;;;;;;16.82;75.52;99471.02;1725905;81;21070;-55
2021/06/15 00:12:51;;;;;;;5.58;2.92;;;;;;;16.77;75.30;99473.20;1762725;80;20955;-57
2021/06/15 00:15:18;;;;;;;3.75;3.52;;;;;;;16.73;75.40;99471.73;1761992;80;20899;-55
2021/06/15 00:17:45;;;;;;;4.22;2.58;;;;;;;16.70;75.95;99467.87;1763036;80;21373;-57
2021/06/15 00:20:13;;;;;;;3.67;2.58;;;;;;;16.69;76.32;99466.14;1761693;79;21780;-53
2021/06/15 00:22:41;;;;;;;4.00;2.90;;;;;;;16.69;76.52;99466.14;1763105;80;21093;-55
2021/06/15 00:25:09;;;;;;;6.62;2.75;;;;;;;16.68;76.38;99467.99;1757726;79;21069;-57
2021/06/15 00:27:37;;;;;;;7.58;4.55;;;;;;;16.67;76.38;99466.29;1762475;80;20899;-53
2021/06/15 00:30:05;;;;;;;4.62;3.67;;;;;;;16.65;76.57;99465.53;1765315;80;20966;-54
2021/06/15 00:32:31;;;;;;;5.17;3.70;;;;;;;16.65;76.80;99465.53;1759341;79;21780;-56
2021/06/15 00:34:57;;;;;;;6.33;3.25;;;;;;;16.62;76.85;99463.05;1723184;82;21035;-53
2021/06/15 00:37:24;;;;;;;2.58;2.37;;;;;;;16.61;76.94;99464.02;1761082;79;21071;-54
2021/06/15 00:39:51;;;;;;;10.32;2.92;;;;;;;16.62;76.88;99467.98;1759212;80;21088;-55
2021/06/15 00:42:17;;;;;;;4.45;2.98;;;;;;;16.61;76.72;99459.46;1760002;80;21101;-57
2021/06/15 00:44:44;;;;;;;3.15;2.80;;;;;;;16.61;76.65;99458.10;1761768;80;21080;-54
2021/06/15 00:47:11;;;;;;;3.20;2.08;;;;;;;16.61;76.64;99454.02;1756940;80;22076;-53
2021/06/15 00:49:39;;;;;;;7.08;2.95;;;;;;;16.62;76.60;99451.69;1760553;80;21039;-55
2021/06/15 00:52:06;;;;;;;5.85;3.67;;;;;;;16.60;76.64;99456.33;1758434;80;21090;-54
2021/06/15 00:54:33;;;;;;;4.75;3.45;;;;;;;16.60;76.63;99458.17;1761895;80;21800;-53
2021/06/15 00:57:00;;;;;;;4.72;2.72;;;;;;;16.57;76.67;99459.30;1757897;80;21090;-55
2021/06/15 00:59:27;;;;;;;2.55;1.80;;;;;;;16.55;76.63;99457.19;1716918;82;21498;-53
2021/06/15 01:01:54;;;;;;;9.23;2.35;;;;;;;16.55;76.50;99451.76;1763637;80;21272;-55
2021/06/15 01:04:22;;;;;;;3.55;2.12;;;;;;;16.54;76.57;99447.30;1760407;80;21984;-55
2021/06/15 01:07:13;;;;;;;5.65;2.02;;;;;;;16.54;76.59;99444.59;1755331;80;21101;-53
2021/06/15 01:10:12;;;;;;;2.65;2.17;;;;;;;16.53;76.59;99445.56;1768627;79;20987;-53
2021/06/15 01:13:07;;;;;;;6.40;2.52;;;;;;;16.50;76.61;99447.16;1769060;79;21798;-56
2021/06/15 01:15:42;;;;;;;4.97;2.30;;;;;;;16.47;76.61;99450.62;1686187;83;21769;-53
2021/06/15 01:18:21;;;;;;;3.05;2.77;;;;;;;16.43;76.64;99451.33;1768485;79;21038;-53
2021/06/15 01:20:51;;;;;;;7.42;2.22;;;;;;;16.41;76.57;99460.61;1766376;79;21520;-53
2021/06/15 01:23:43;;;;;;;4.22;1.77;;;;;;;16.39;76.60;99460.72;1768059;79;21081;-54
2021/06/15 01:26:38;;;;;;;1.75;1.57;;;;;;;16.36;76.53;99450.08;1740436;79;21126;-57
2021/06/15 01:29:19;;;;;;;5.00;2.05;;;;;;;16.33;76.51;99451.69;1766245;79;22071;-54
2021/06/15 01:31:49;;;;;;;5.22;2.52;;;;;;;16.31;76.44;99448.70;1766297;79;21077;-54
2021/06/15 01:34:31;;;;;;;7.72;2.75;;;;;;;16.29;76.40;99454.25;1769709;79;21358;-54
2021/06/15 01:37:10;;;;;;;4.53;2.60;;;;;;;16.26;76.54;99448.55;1768152;79;20910;-53
2021/06/15 01:39:51;;;;;;;3.15;2.95;;;;;;;16.25;76.61;99454.09;1761000;79;21748;-56
2021/06/15 01:42:37;;;;;;;5.58;2.62;;;;;;;16.22;76.56;99462.01;1770769;79;21025;-56
2021/06/15 01:45:30;;;;;;;6.25;1.52;;;;;;;16.21;76.57;99457.55;1735568;79;21129;-56
2021/06/15 01:48:32;;;;;;;4.20;2.20;;;;;;;16.20;76.61;99460.37;1739987;80;21062;-56
2021/06/15 01:50:59;;;;;;;3.12;1.80;;;;;;;16.18;76.74;99464.56;1765386;79;21045;-55
2021/06/15 01:53:26;;;;;;;5.72;2.12;;;;;;;16.17;76.93;99457.88;1738384;79;21158;-57
2021/06/15 01:55:55;;;;;;;2.62;2.22;;;;;;;16.18;77.01;99463.20;1766359;79;21081;-56
2021/06/15 01:58:25;;;;;;;2.85;2.65;;;;;;;16.20;77.07;99464.45;1766529;79;21115;-57
2021/06/15 02:00:52;;;;;;;4.20;2.45;;;;;;;16.22;77.04;99462.01;1770254;79;21484;-58
2021/06/15 02:03:19;;;;;;;2.33;2.22;;;;;;;16.23;76.95;99461.52;1740605;79;21431;-57
2021/06/15 02:05:51;;;;;;;4.78;1.90;;;;;;;16.22;76.95;99461.14;1763473;79;21100;-58
2021/06/15 02:08:29;;;;;;;6.08;2.72;;;;;;;16.22;76.82;99455.70;1775384;79;20922;-58
2021/06/15 02:10:58;;;;;;;5.37;2.05;;;;;;;16.22;76.92;99457.93;1762852;80;20878;-58
2021/06/15 02:13:28;;;;;;;3.83;2.02;;;;;;;16.23;76.96;99457.45;1759757;79;20958;-58
2021/06/15 02:16:00;;;;;;;3.05;2.25;;;;;;;16.24;76.98;99458.69;1726259;80;21086;-56
2021/06/15 02:18:52;;;;;;;3.30;2.33;;;;;;;16.26;76.94;99461.27;1757204;80;21509;-58
2021/06/15 02:21:27;;;;;;;3.80;3.37;;;;;;;16.26;76.84;99465.34;1755388;79;21113;-58
2021/06/15 02:23:58;;;;;;;4.30;2.75;;;;;;;16.23;76.97;99464.23;1736541;80;21100;-58
2021/06/15 02:26:25;;;;;;;2.07;1.97;;;;;;;16.23;77.17;99461.03;1760013;79;21056;-57
2021/06/15 02:28:52;;;;;;;3.42;1.82;;;;;;;16.24;77.25;99457.33;1757686;80;21133;-58
2021/06/15 02:31:24;;;;;;;4.47;1.65;;;;;;;16.27;77.28;99463.00;1755041;80;21132;-58
2021/06/15 02:33:54;;;;;;;3.67;2.55;;;;;;;16.30;77.20;99461.91;1739459;80;21050;-56
2021/06/15 02:36:28;;;;;;;3.45;2.17;;;;;;;16.32;77.20;99460.81;1757392;80;21142;-56
2021/06/15 02:38:59;;;;;;;5.70;2.72;;;;;;;16.34;77.15;99462.03;1758547;80;21537;-58
2021/06/15 02:41:26;;;;;;;3.92;2.72;;;;;;;16.35;77.18;99467.35;1739411;80;21528;-59
2021/06/15 02:43:57;;;;;;;3.22;2.62;;;;;;;16.35;77.37;99467.84;1740437;80;21311;-58
2021/06/15 02:46:21;;;;;;;2.65;2.35;;;;;;;16.37;77.50;99472.19;1738350;80;21109;-58
2021/06/15 02:48:53;;;;;;;2.85;2.60;;;;;;;16.35;77.52;99475.50;1736891;79;21055;-57
2021/06/15 02:51:20;;;;;;;6.85;2.15;;;;;;;16.33;77.65;99476.63;1763179;80;21053;-58
2021/06/15 02:54:14;;;;;;;5.03;1.57;;;;;;;16.31;77.74;99478.09;1758623;79;21564;-57
2021/06/15 02:56:43;;;;;;;1.85;1.50;;;;;;;16.29;77.94;99482.77;1735916;80;21483;-58
2021/06/15 02:59:10;;;;;;;3.70;1.50;;;;;;;16.30;78.20;99476.36;1758684;79;21046;-56
2021/06/15 03:01:37;;;;;;;4.40;1.20;;;;;;;16.33;78.38;99476.63;1760446;80;21054;-57
2021/06/15 03:04:04;;;;;;;4.22;1.60;;;;;;;16.39;78.37;99476.15;1761204;80;20972;-59
2021/06/15 03:06:31;;;;;;;2.83;1.52;;;;;;;16.40;78.52;99468.37;1736511;80;21011;-59
2021/06/15 03:08:58;;;;;;;2.35;2.02;;;;;;;16.42;78.67;99468.61;1764437;80;21591;-59
2021/06/15 03:11:25;;;;;;;6.10;2.20;;;;;;;16.48;78.77;99477.67;1765400;80;22061;-58
2021/06/15 03:14:13;;;;;;;2.20;1.62;;;;;;;16.53;78.94;99475.45;1761045;79;20940;-58
2021/06/15 03:16:40;;;;;;;4.15;2.15;;;;;;;16.59;79.09;99473.61;1757066;79;20946;-58
2021/06/15 03:19:17;;;;;;;2.85;1.90;;;;;;;16.67;79.16;99470.36;1739453;80;20966;-58
2021/06/15 03:23:51;;;;;;;4.28;1.95;;;;;;;16.83;79.59;99470.03;1837311;76;26659;-60
2021/06/15 03:26:23;;;;;;;6.05;3.08;;;;;;;16.85;79.84;99470.27;1804646;77;20925;-59
2021/06/15 03:28:55;;;;;;;3.17;2.87;;;;;;;16.94;80.15;99466.82;1813551;77;21122;-59
2021/06/15 03:31:22;;;;;;;2.58;2.40;;;;;;;17.02;80.26;99470.30;1809174;77;20929;-58
2021/06/15 03:33:50;;;;;;;3.10;2.83;;;;;;;17.10;80.40;99471.08;1812674;77;20883;-59
2021/06/15 03:36:18;;;;;;;3.15;2.27;;;;;;;17.18;80.54;99473.52;1811439;77;21001;-59
2021/06/15 03:38:45;;;;;;;5.80;2.50;;;;;;;17.26;80.67;99469.73;1809744;77;21291;-59
2021/06/15 03:41:15;;;;;;;3.27;2.95;;;;;;;17.36;81.07;99470.69;1810627;77;21898;-58
2021/06/15 03:43:47;;;;;;;3.22;3.02;;;;;;;17.48;81.31;99470.70;1770636;78;20899;-58
2021/06/15 03:46:13;;;;;;;4.55;3.40;;;;;;;17.58;81.47;99471.20;1799151;78;20969;-59
2021/06/15 03:48:42;;;;;;;3.47;3.15;;;;;;;17.69;81.61;99472.56;1799466;78;21096;-59
2021/06/15 03:51:27;;;;;;;2.77;2.50;;;;;;;17.81;81.75;99473.42;1801799;78;21464;-61
2021/06/15 03:54:06;;;;;;;4.97;3.42;;;;;;;17.93;81.74;99477.00;1803218;78;20950;-59
2021/06/15 03:56:22;;;;;;;7.83;3.45;;;;;;;18.09;81.43;99483.77;1793515;78;21112;-58
2021/06/15 03:58:48;;;;;;;4.60;4.20;;;;;;;18.24;81.23;99479.38;1799050;78;21025;-56
2021/06/15 04:01:15;;;;;;;5.40;4.28;;;;;;;18.35;81.09;99476.63;1802792;78;22923;-59
2021/06/15 04:03:41;;;;;;;6.87;6.28;;;;;;;18.44;80.78;99472.63;1801271;78;21029;-58
2021/06/15 04:06:09;;;;;;;4.90;4.50;;;;;;;18.54;80.39;99472.19;1798721;78;21516;-58
2021/06/15 04:08:37;;;;;;;5.53;4.28;;;;;;;18.67;79.94;99484.31;1803415;78;20942;-59
2021/06/15 04:11:03;;;;;;;4.58;3.80;;;;;;;18.78;79.59;99488.86;1802444;78;21610;-60
2021/06/15 04:13:30;;;;;;;6.80;3.70;;;;;;;18.86;79.30;99485.84;1800451;78;21566;-60
2021/06/15 04:15:56;;;;;;;4.00;3.72;;;;;;;18.96;79.09;99485.91;1801742;78;21025;-61
2021/06/15 04:18:24;;;;;;;4.00;3.75;;;;;;;19.05;78.93;99482.87;1797439;78;21112;-59
2021/06/15 04:20:52;;;;;;;4.05;3.75;;;;;;;19.13;78.75;99483.94;1803939;78;20902;-60
2021/06/15 04:23:20;;;;;;;4.45;4.25;;;;;;;19.24;78.48;99492.02;1803577;78;21374;-61
2021/06/15 04:25:47;;;;;;;7.40;4.45;;;;;;;19.33;78.05;99485.39;1800562;78;21032;-61
2021/06/15 04:28:15;;;;;;;4.85;4.22;;;;;;;19.41;77.85;99482.34;1799013;78;21429;-60
2021/06/15 04:30:41;;;;;;;5.03;4.62;;;;;;;19.49;77.78;99487.15;1800398;78;20961;-57
2021/06/15 04:33:10;;;;;;;5.78;4.72;;;;;;;19.59;77.56;99486.70;1797654;78;21548;-58
2021/06/15 04:35:49;;;;;;;8.13;4.62;;;;;;;19.67;77.02;99486.88;1798163;77;21057;-59
2021/06/15 04:38:22;;;;;;;3.58;3.20;;;;;;;19.74;77.01;99484.44;1800599;78;21025;-57
2021/06/15 04:40:56;;;;;;;5.47;3.50;;;;;;;19.80;76.95;99484.78;1800702;78;20970;-56
2021/06/15 04:43:34;;;;;;;5.42;3.95;;;;;;;19.89;76.74;99477.62;1798844;78;21194;-60
2021/06/15 04:46:27;;;;;;;4.25;3.60;;;;;;;20.00;76.67;99479.72;1802687;78;21086;-59
2021/06/15 04:49:10;;;;;;;5.85;4.67;;;;;;;20.12;76.40;99476.88;1800624;78;21047;-58
2021/06/15 04:51:37;;;;;;;3.95;3.55;;;;;;;20.22;76.20;99475.89;1800544;78;21367;-59
2021/06/15 04:54:04;;;;;;;5.78;5.28;;;;;;;20.32;76.07;99476.77;1801614;78;21473;-60
2021/06/15 04:56:31;;;;;;;4.92;4.42;;;;;;;20.39;75.88;99471.12;1800673;78;21152;-61
2021/06/15 04:59:02;;;;;;;4.03;3.70;;;;;;;20.49;75.66;99470.27;1797380;78;21053;-57
2021/06/15 05:01:29;;;;;;;5.78;4.40;;;;;;;20.57;75.32;99475.37;1798630;78;21551;-60
2021/06/15 05:03:56;;;;;;;4.37;3.25;;;;;;;20.67;75.19;99471.28;1798005;78;21392;-58
2021/06/15 05:06:22;;;;;;;3.87;3.33;;;;;;;20.76;74.82;99469.02;1801486;78;21354;-57
2021/06/15 05:08:56;;;;;;;8.28;5.10;;;;;;;20.86;74.51;99464.40;1799355;78;22312;-57
2021/06/15 05:11:22;;;;;;;6.40;4.43;;;;;;;20.98;74.31;99468.72;1803167;78;21684;-60
2021/06/15 05:13:49;;;;;;;6.08;4.80;;;;;;;21.08;74.01;99470.94;1799200;78;21397;-59
2021/06/15 05:16:15;;;;;;;8.60;4.28;;;;;;;21.15;73.59;99465.22;1793472;78;21030;-59
2021/06/15 05:18:42;;;;;;;7.40;4.08;;;;;;;21.26;73.17;99466.97;1802978;78;21051;-58
2021/06/15 05:21:16;;;;;;;3.42;2.75;;;;;;;21.35;72.74;99466.04;1801291;78;21151;-58
2021/06/15 05:23:47;;;;;;;2.60;2.40;;;;;;;21.43;71.85;99471.66;1802315;78;21105;-59
2021/06/15 05:26:13;;;;;;;3.02;2.15;;;;;;;21.51;70.70;99470.41;1771782;78;21136;-56
2021/06/15 05:28:40;;;;;;;9.23;3.47;;;;;;;21.59;70.28;99471.02;1800468;78;21108;-55
2021/06/15 05:31:06;;;;;;;2.27;2.08;;;;;;;21.66;69.07;99473.51;1802895;78;21049;-57
2021/06/15 05:33:33;;;;;;;4.33;2.20;;;;;;;21.74;68.69;99474.12;1799928;78;21110;-58
2021/06/15 05:36:00;;;;;;;4.37;1.98;;;;;;;21.80;68.95;99471.62;1799202;78;21061;-58
2021/06/15 05:38:26;;;;;;;3.60;1.82;;;;;;;21.86;68.72;99473.75;1797145;78;21061;-59
2021/06/15 05:40:53;;;;;;;3.62;1.40;;;;;;;21.95;68.68;99472.51;1798684;78;21430;-55
2021/06/15 05:43:19;;;;;;;4.25;1.20;;;;;;;22.02;68.21;99473.66;1799980;78;21470;-59
2021/06/15 05:45:46;;;;;;;4.75;1.00;;;;;;;22.11;66.98;99469.98;1802542;78;21420;-56
2021/06/15 05:48:14;;;;;;;1.65;1.10;;;;;;;22.19;65.92;99469.58;1797755;78;21045;-58
2021/06/15 05:50:41;;;;;;;1.42;1.27;;;;;;;22.26;64.33;99469.30;1801243;78;21397;-57
2021/06/15 05:53:07;;;;;;;1.60;0.93;;;;;;;22.35;63.72;99472.12;1806035;78;20864;-56
2021/06/15 05:55:34;;;;;;;1.77;1.07;;;;;;;22.39;63.36;99473.02;1800724;78;20922;-60
2021/06/15 05:58:00;;;;;;;1.37;1.17;;;;;;;22.45;62.60;99475.16;1800007;78;21158;-60
2021/06/15 06:00:27;;;;;;;1.17;0.98;;;;;;;22.49;61.97;99471.07;1799477;78;21098;-59
2021/06/15 06:02:53;;;;;;;3.02;0.95;;;;;;;22.55;61.70;99476.43;1802775;78;21014;-57
2021/06/15 06:08:05;;;;;;;1.02;0.93;;;;;;;22.67;61.54;99470.20;1799989;78;21350;-60
2021/06/15 06:10:31;;;;;;;1.75;1.12;;;;;;;22.70;61.47;99469.40;1801405;78;21115;-57
2021/06/15 06:12:59;;;;;;;1.12;1.02;;;;;;;22.77;61.59;99463.66;1799409;78;20926;-59
2021/06/15 06:15:27;;;;;;;1.00;0.90;;;;;;;22.84;60.48;99469.36;1801638;78;20904;-60
2021/06/15 06:17:54;;;;;;;1.12;1.00;;;;;;;22.88;60.30;99468.05;1798787;78;21014;-60
2021/06/15 06:20:21;;;;;;;1.12;0.90;;;;;;;22.93;60.35;99472.53;1803458;78;20926;-60
2021/06/15 06:22:47;;;;;;;1.87;1.20;;;;;;;22.99;59.93;99469.14;1802129;78;22135;-59
2021/06/15 06:25:14;;;;;;;3.65;1.00;;;;;;;23.06;59.49;99467.47;1804006;78;21408;-57
2021/06/15 06:27:40;;;;;;;1.42;0.80;;;;;;;23.11;59.05;99471.99;1803016;78;20884;-57
2021/06/15 06:30:07;;;;;;;1.30;1.20;;;;;;;23.16;59.09;99466.87;1805598;78;20903;-58
2021/06/15 06:32:35;;;;;;;1.57;0.90;;;;;;;23.21;58.89;99459.03;1804722;78;21377;-57
2021/06/15 06:35:02;;;;;;;2.83;0.80;;;;;;;23.27;58.76;99463.87;1803366;78;21852;-56
2021/06/15 06:37:28;;;;;;;2.77;0.90;;;;;;;23.33;58.97;99460.97;1803552;78;21500;-58
2021/06/15 06:39:55;;;;;;;1.98;1.00;;;;;;;23.39;59.01;99464.47;1801456;78;20891;-58
2021/06/15 06:42:22;;;;;;;3.17;0.90;;;;;;;23.44;58.27;99462.08;1803094;78;21009;-54
2021/06/15 06:44:48;;;;;;;3.47;0.90;;;;;;;23.49;58.34;99464.36;1802181;78;20934;-58
2021/06/15 06:47:14;;;;;;;1.80;0.95;;;;;;;23.53;58.35;99466.63;1804246;78;21752;-61
2021/06/15 06:49:41;;;;;;;2.27;0.98;;;;;;;23.59;58.62;99462.36;1799255;78;21449;-58
2021/06/15 06:52:07;;;;;;;0.80;0.80;;;;;;;23.66;58.00;99467.55;1799790;78;21028;-60
2021/06/15 06:54:33;;;;;;;3.52;0.80;;;;;;;23.71;57.81;99461.92;1798547;78;22332;-59
2021/06/15 06:57:00;;;;;;;4.17;0.90;;;;;;;23.79;58.08;99455.59;1798833;78;21090;-58
2021/06/15 06:59:26;;;;;;;7.03;0.90;;;;;;;23.87;57.68;99454.77;1803794;78;21091;-58
2021/06/15 07:01:52;;;;;;;3.52;1.45;;;;;;;23.92;57.61;99457.87;1796554;78;21136;-57
2021/06/15 07:04:19;;;;;;;4.90;1.92;;;;;;;23.95;57.26;99458.41;1801026;78;21124;-57
2021/06/15 07:06:45;;;;;;;1.35;1.00;;;;;;;24.00;57.71;99448.27;1800648;78;21303;-56
2021/06/15 07:09:11;;;;;;;1.82;1.00;;;;;;;24.03;57.40;99444.69;1800872;78;21527;-56
2021/06/15 07:11:38;;;;;;;2.80;0.95;;;;;;;24.08;56.97;99445.04;1801681;78;21749;-58
2021/06/15 07:14:06;;;;;;;2.80;1.00;;;;;;;24.17;56.64;99439.56;1802986;78;21505;-58
2021/06/15 07:16:32;;;;;;;2.75;1.17;;;;;;;24.21;56.99;99440.48;1797817;78;21312;-59
2021/06/15 07:18:59;;;;;;;1.10;1.00;;;;;;;24.27;57.31;99434.30;1799662;78;21022;-58
2021/06/15 07:21:25;;;;;;;2.33;0.90;;;;;;;24.33;57.21;99444.61;1800088;78;21641;-56
2021/06/15 07:23:52;;;;;;;1.65;1.00;;;;;;;24.38;56.27;99438.63;1773042;78;21102;-59
2021/06/15 07:26:21;;;;;;;1.25;1.20;;;;;;;24.43;56.40;99434.84;1760352;79;21076;-59
2021/06/15 07:28:48;;;;;;;2.65;0.98;;;;;;;24.47;56.25;99438.98;1757295;79;21075;-59
2021/06/15 07:31:14;;;;;;;1.87;1.22;;;;;;;24.50;56.49;99442.23;1756408;79;20958;-59
2021/06/15 07:33:41;;;;;;;1.00;0.90;;;;;;;24.53;55.24;99435.54;1757927;79;21556;-58
2021/06/15 07:36:07;;;;;;;1.37;1.00;;;;;;;24.55;56.02;99434.86;1757323;79;21096;-57
2021/06/15 07:38:33;;;;;;;2.25;0.85;;;;;;;24.59;55.40;99438.11;1752309;79;21131;-61
2021/06/15 07:41:02;;;;;;;2.70;1.32;;;;;;;24.63;55.39;99434.87;1753944;79;21420;-58
2021/06/15 07:43:30;;;;;;;4.60;0.88;;;;;;;24.70;55.51;99433.66;1752630;80;21001;-60
2021/06/15 07:45:56;;;;;;;2.40;1.00;;;;;;;24.74;54.62;99427.66;1755551;79;21127;-57
2021/06/15 07:48:27;;;;;;;4.53;0.80;;;;;;;24.81;54.56;99436.94;1756250;79;20971;-60
2021/06/15 07:50:54;;;;;;;2.35;1.10;;;;;;;24.87;53.90;99432.62;1752380;79;21135;-58
2021/06/15 07:53:22;;;;;;;2.00;1.00;;;;;;;24.94;53.99;99428.69;1753398;79;21099;-62
2021/06/15 07:55:48;;;;;;;11.03;1.20;;;;;;;25.01;54.19;99427.82;1754267;79;21041;-60
2021/06/15 07:58:14;;;;;;;1.35;0.93;;;;;;;25.09;54.27;99431.11;1753158;79;21049;-57
2021/06/15 08:00:41;;;;;;;1.02;0.90;;;;;;;25.15;53.99;99429.02;1758730;79;21112;-58
2021/06/15 08:03:07;;;;;;;3.40;1.12;;;;;;;25.20;54.48;99428.83;1758236;79;20994;-61
2021/06/15 08:05:34;;;;;;;1.52;0.98;;;;;;;25.25;53.70;99430.56;1755467;79;21045;-65
2021/06/15 08:08:01;;;;;;;6.83;0.90;;;;;;;25.30;52.99;99415.39;1760817;79;21341;-60
2021/06/15 08:10:27;;;;;;;1.37;0.90;;;;;;;25.37;53.26;99418.64;1755874;79;21683;-59
2021/06/15 08:12:54;;;;;;;1.20;0.90;;;;;;;25.45;53.19;99421.36;1752859;79;21133;-58
2021/06/15 08:15:21;;;;;;;2.47;1.00;;;;;;;25.50;51.61;99409.83;1757616;79;21028;-60
2021/06/15 08:17:47;;;;;;;1.60;1.10;;;;;;;25.54;52.20;99408.42;1753274;79;22012;-59
2021/06/15 08:20:14;;;;;;;2.05;0.80;;;;;;;25.57;51.62;99407.56;1754394;79;21000;-62
2021/06/15 08:22:41;;;;;;;1.20;0.85;;;;;;;25.59;52.19;99405.52;1758599;79;21358;-63
2021/06/15 08:25:08;;;;;;;1.92;0.80;;;;;;;25.62;51.83;99398.26;1797112;78;21530;-61
2021/06/15 08:27:35;;;;;;;1.85;1.22;;;;;;;25.68;52.09;99405.49;1796510;78;21041;-63
2021/06/15 08:30:04;;;;;;;1.65;0.90;;;;;;;25.72;51.84;99410.97;1799225;78;21104;-60
2021/06/15 08:32:30;;;;;;;2.77;1.00;;;;;;;25.81;52.16;99409.90;1801477;78;21109;-57
2021/06/15 08:34:56;;;;;;;1.22;0.90;;;;;;;25.84;50.97;99409.03;1797942;78;21044;-58
2021/06/15 08:37:24;;;;;;;5.35;1.00;;;;;;;25.83;51.06;99400.94;1802145;78;21148;-61
2021/06/15 08:39:50;;;;;;;5.37;1.25;;;;;;;25.85;51.44;99402.48;1800516;78;21080;-61
2021/06/15 08:42:17;;;;;;;1.00;1.00;;;;;;;25.90;51.01;99402.80;1800692;78;21432;-58
2021/06/15 08:44:44;;;;;;;1.05;0.85;;;;;;;25.92;50.58;99403.48;1800511;78;21152;-58
2021/06/15 08:47:15;;;;;;;1.77;0.95;;;;;;;25.93;50.73;99401.06;1800213;78;21060;-59
2021/06/15 08:49:39;;;;;;;3.30;1.05;;;;;;;25.97;49.62;99394.65;1799111;78;21477;-58
2021/06/15 08:52:06;;;;;;;2.95;0.95;;;;;;;26.00;49.61;99394.30;1798465;78;21053;-60
2021/06/15 08:54:32;;;;;;;0.90;0.90;;;;;;;26.02;49.51;99391.37;1799628;78;21049;-57
2021/06/15 08:56:58;;;;;;;1.45;0.90;;;;;;;25.99;49.16;99389.81;1800092;78;21145;-59
2021/06/15 08:59:26;;;;;;;1.07;0.98;;;;;;;26.00;48.71;99388.78;1798748;78;21095;-58
2021/06/15 09:01:58;;;;;;;0.90;0.80;;;;;;;26.01;49.34;99384.98;1800530;78;21105;-57
2021/06/15 09:04:24;;;;;;;2.45;0.90;;;;;;;26.07;49.81;99382.88;1798761;78;21058;-57
2021/06/15 09:06:51;;;;;;;4.00;0.80;;;;;;;26.16;50.52;99379.55;1797004;78;20974;-61
2021/06/15 09:09:17;;;;;;;2.08;0.90;;;;;;;26.27;50.70;99381.92;1773455;79;21762;-62
2021/06/15 09:11:55;;;;;;;1.30;0.90;;;;;;;26.38;50.02;99382.34;1802505;78;20967;-60
2021/06/15 09:14:48;;;;;;;1.50;1.00;;;;;;;26.51;49.20;99376.22;1807455;78;21060;-61
2021/06/15 09:17:26;;;;;;;1.10;0.95;;;;;;;26.63;49.86;99375.23;1805029;78;21808;-59
2021/06/15 09:19:56;;;;;;;1.22;1.10;;;;;;;26.74;48.20;99372.05;1796486;78;20891;-58
2021/06/15 09:22:34;;;;;;;1.45;0.90;;;;;;;26.78;47.47;99367.88;1805556;78;20961;-59
2021/06/15 09:25:07;;;;;;;1.10;1.00;;;;;;;26.82;47.70;99369.20;1804463;78;21334;-58
2021/06/15 09:27:37;;;;;;;2.98;1.10;;;;;;;26.89;48.62;99366.55;1801024;78;21283;-57
2021/06/15 09:30:10;;;;;;;2.47;1.00;;;;;;;26.96;49.19;99369.81;1802922;78;21508;-57
2021/06/15 09:32:39;;;;;;;1.65;0.90;;;;;;;26.99;48.74;99369.42;1805211;78;21409;-58
2021/06/15 09:35:09;;;;;;;0.90;0.90;;;;;;;27.06;48.10;99364.85;1803884;78;20919;-59
2021/06/15 09:37:54;;;;;;;7.10;0.95;;;;;;;27.01;47.58;99360.43;1803416;78;21780;-58
2021/06/15 09:40:24;;;;;;;;;;;;;;;27.04;48.18;99364.20;1803531;78;22056;-62
2021/06/15 09:43:10;;;;;;;1.05;0.70;;;;;;;27.09;48.66;99359.48;1773425;78;20470;-58
2021/06/15 09:45:44;;;;;;;4.33;0.95;;;;;;;27.13;47.59;99360.84;1802188;78;20862;-59
2021/06/15 09:48:34;;;;;;;3.05;0.90;;;;;;;27.17;47.52;99348.34;1802235;78;20964;-60
2021/06/15 09:51:14;;;;;;;1.62;0.80;;;;;;;27.25;47.52;99351.53;1735692;80;22115;-62
2021/06/15 09:53:45;;;;;;;0.93;0.80;;;;;;;27.33;46.03;99350.05;1732522;82;21225;-59
2021/06/15 09:56:14;;;;;;;1.77;0.70;;;;;;;27.33;45.97;99346.77;1762637;80;21039;-62
2021/06/15 09:58:52;;;;;;;1.80;0.72;;;;;;;27.39;46.53;99352.08;1757611;80;21125;-62
2021/06/15 10:01:37;;;;;;;2.75;0.90;;;;;;;27.41;45.84;99346.67;1736287;82;20894;-58
2021/06/15 10:04:23;;;;;;;4.90;1.42;;;;;;;27.49;46.11;99352.61;1736990;82;21057;-59
2021/06/15 10:06:56;;;;;;;1.00;0.90;;;;;;;27.56;46.04;99354.97;1758738;80;21094;-57
2021/06/15 10:09:29;;;;;;;2.72;0.90;;;;;;;27.64;46.21;99347.98;1760146;80;20954;-58
2021/06/15 10:11:59;;;;;;;0.82;0.82;;;;;;;27.65;45.25;99344.14;1744687;81;21073;-58
2021/06/15 10:14:26;;;;;;;1.60;0.80;;;;;;;27.55;45.19;99353.29;1742331;81;21372;-56
2021/06/15 10:16:54;;;;;;;5.75;0.82;;;;;;;27.40;43.69;99349.09;1744944;81;21100;-56
2021/06/15 10:19:22;;;;;;;3.02;0.85;;;;;;;27.23;44.36;99345.33;1747408;81;21119;-62
2021/06/15 10:21:49;;;;;;;2.33;0.70;;;;;;;27.09;44.72;99347.91;1758376;80;21049;-59
2021/06/15 10:24:18;;;;;;;1.17;0.90;;;;;;;27.06;44.68;99344.13;1734747;80;21086;-59
2021/06/15 10:26:44;;;;;;;0.65;0.65;;;;;;;27.07;44.80;99334.80;1757997;80;21115;-60
2021/06/15 10:29:11;;;;;;;0.90;0.75;;;;;;;27.13;45.95;99333.73;1735704;82;21243;-61
2021/06/15 10:31:39;;;;;;;0.80;0.80;;;;;;;27.19;45.84;99331.06;1756061;80;21750;-61
2021/06/15 10:34:05;;;;;;;1.00;0.75;;;;;;;27.28;44.56;99334.58;1743825;81;21390;-61
2021/06/15 10:36:47;;;;;;;0.82;0.82;;;;;;;27.33;44.75;99332.09;1742128;80;21073;-62
2021/06/15 10:39:39;;;;;;;7.00;0.98;;;;;;;27.42;44.13;99330.42;1743479;81;21025;-60
2021/06/15 10:42:15;;;;;;;3.90;1.10;;;;;;;27.52;44.46;99319.07;1761798;80;21015;-60
2021/06/15 10:44:43;;;;;;;3.50;0.70;;;;;;;27.61;44.69;99321.23;1763346;80;21130;-60
2021/06/15 10:47:11;;;;;;;1.42;0.70;;;;;;;27.60;43.01;99328.67;1763020;79;21033;-60
2021/06/15 10:49:59;;;;;;;0.80;0.70;;;;;;;27.52;44.31;99334.27;1761946;80;22206;-59
2021/06/15 10:52:28;;;;;;;1.95;0.50;;;;;;;27.42;43.71;99333.19;1756961;80;21085;-59
2021/06/15 10:54:55;;;;;;;0.72;0.60;;;;;;;27.35;42.85;99327.23;1730523;82;21757;-58
2021/06/15 10:57:28;;;;;;;3.25;0.80;;;;;;;27.29;42.90;99319.72;1734020;82;21118;-60
2021/06/15 11:00:14;;;;;;;5.90;0.80;;;;;;;27.22;43.47;99318.78;1733745;82;25808;-62
2021/06/15 11:03:03;;;;;;;1.70;0.88;;;;;;;27.17;43.63;99319.33;1763255;80;21343;-62
2021/06/15 11:05:38;;;;;;;1.00;0.60;;;;;;;27.14;43.85;99316.94;1735883;82;21086;-61
2021/06/15 11:08:25;;;;;;;1.07;0.95;;;;;;;27.18;43.80;99314.66;1733294;82;21124;-61
2021/06/15 11:10:58;;;;;;;3.35;0.62;;;;;;;27.23;43.81;99317.70;1733317;82;21097;-60
2021/06/15 11:13:50;;;;;;;1.33;0.60;;;;;;;27.29;44.60;99309.53;1732101;82;21088;-57
2021/06/15 11:16:42;;;;;;;0.90;0.60;;;;;;;27.41;43.89;99311.27;1733440;82;21711;-58
2021/06/15 11:19:14;;;;;;;4.40;0.70;;;;;;;27.52;45.22;99314.92;1762527;80;20999;-58
2021/06/15 11:21:53;;;;;;;3.65;0.88;;;;;;;27.55;48.05;99325.64;1759302;80;21438;-57
2021/06/15 11:24:48;;;;;;;1.30;1.10;;;;;;;27.47;49.68;99316.91;1744460;81;21054;-57
2021/06/15 11:27:24;;;;;;;0.90;0.85;;;;;;;27.38;49.99;99314.43;1748848;81;21103;-58
2021/06/15 11:29:52;;;;;;;2.17;0.90;;;;;;;27.28;54.12;99305.57;1746592;81;21073;-60
2021/06/15 11:32:34;;;;;;;2.40;1.32;;;;;;;27.06;54.62;99312.37;1750487;81;21060;-56
2021/06/15 11:35:06;;;;;;;2.05;0.90;;;;;;;26.68;51.93;99303.27;1747603;80;21080;-59
2021/06/15 11:37:44;;;;;;;1.80;0.70;;;;;;;26.33;53.25;99292.37;1746779;81;22921;-62
2021/06/15 11:40:35;;;;;;;2.27;0.90;;;;;;;26.14;54.19;99291.98;1750372;81;21788;-60
2021/06/15 11:43:15;;;;;;;1.07;1.00;;;;;;;25.97;55.49;99285.20;1747108;81;21021;-56
2021/06/15 11:45:43;;;;;;;1.60;0.80;;;;;;;25.85;54.50;99278.94;1747451;81;21065;-62
2021/06/15 11:48:33;;;;;;;0.93;0.70;;;;;;;25.76;55.75;99271.76;1752043;81;20930;-59
2021/06/15 11:51:08;;;;;;;2.77;0.80;;;;;;;25.73;56.36;99273.48;1750760;81;21088;-59
2021/06/15 11:53:37;;;;;;;0.80;0.80;;;;;;;25.69;57.12;99265.27;1749035;81;21045;-58
2021/06/15 11:56:07;;;;;;;1.25;0.70;;;;;;;25.69;57.36;99265.27;1746387;81;21013;-59